createdAt,value
2023-04-11T00:01:02.156Z,52
2023-04-11T00:02:09.152Z,54
2023-04-11T00:03:16.156Z,53
2023-04-11T00:04:25.862Z,56
2023-04-11T00:05:32.564Z,53
2023-04-11T00:06:39.632Z,53
2023-04-11T00:07:46.437Z,51
2023-04-11T00:08:53.586Z,54
2023-04-11T00:10:00.193Z,52
2023-04-11T00:11:07.089Z,51
2023-04-11T00:12:13.878Z,51
2023-04-11T00:13:20.675Z,52
2023-04-11T00:14:27.533Z,51
2023-04-11T00:15:37.393Z,51
2023-04-11T00:16:44.436Z,50
2023-04-11T00:17:51.168Z,51
2023-04-11T00:18:58.056Z,49
2023-04-11T00:20:04.816Z,48
2023-04-11T00:21:11.845Z,52
2023-04-11T00:22:18.795Z,52
2023-04-11T00:23:25.689Z,53
2023-04-11T00:24:32.414Z,51
2023-04-11T00:25:39.212Z,52
2023-04-11T00:26:46.010Z,52
2023-04-11T00:27:52.954Z,51
2023-04-11T00:28:59.880Z,52
2023-04-11T00:30:06.693Z,49
2023-04-11T00:31:13.694Z,50
2023-04-11T00:32:20.461Z,47
2023-04-11T00:33:27.188Z,48
2023-04-11T00:34:34.146Z,50
2023-04-11T00:35:40.941Z,49
2023-04-11T00:36:47.683Z,49
2023-04-11T00:37:54.465Z,52
2023-04-11T00:39:01.310Z,53
2023-04-11T00:40:08.102Z,50
2023-04-11T00:41:15.069Z,48
2023-04-11T00:42:21.845Z,48
2023-04-11T00:43:28.659Z,48
2023-04-11T00:44:35.422Z,46
2023-04-11T00:45:42.419Z,48
2023-04-11T00:46:49.212Z,47
2023-04-11T00:47:56.161Z,46
2023-04-11T00:49:02.891Z,48
2023-04-11T00:50:09.682Z,48
2023-04-11T00:51:16.527Z,50
2023-04-11T00:52:23.313Z,48
2023-04-11T00:53:30.193Z,50
2023-04-11T00:54:39.726Z,52
2023-04-11T00:55:46.475Z,52
2023-04-11T00:56:53.300Z,52
2023-04-11T00:58:03.073Z,51
2023-04-11T00:59:09.866Z,49
2023-04-11T01:00:16.740Z,47
2023-04-11T01:01:25.151Z,49
2023-04-11T01:02:30.479Z,44
2023-04-11T01:03:37.264Z,45
2023-04-11T01:04:44.171Z,43
2023-04-11T01:05:51.036Z,41
2023-04-11T01:06:57.857Z,43
2023-04-11T01:08:04.619Z,44
2023-04-11T01:09:11.411Z,41
2023-04-11T01:10:18.465Z,39
2023-04-11T01:11:25.231Z,41
2023-04-11T01:12:31.987Z,42
2023-04-11T01:13:38.766Z,43
2023-04-11T01:14:45.562Z,40
2023-04-11T01:15:52.623Z,39
2023-04-11T01:16:59.594Z,40
2023-04-11T01:18:06.244Z,34
2023-04-11T01:19:13.098Z,31
2023-04-11T01:20:22.883Z,33
2023-04-11T01:21:29.673Z,31
2023-04-11T01:22:36.592Z,34
2023-04-11T01:23:43.434Z,33
2023-04-11T01:24:50.248Z,34
2023-04-11T01:25:57.000Z,35
2023-04-11T01:27:03.814Z,35
2023-04-11T01:28:10.776Z,35
2023-04-11T01:29:17.673Z,35
2023-04-11T01:30:24.461Z,33
2023-04-11T01:31:31.245Z,33
2023-04-11T01:32:38.056Z,34
2023-04-11T01:33:44.826Z,35
2023-04-11T01:34:51.765Z,36
2023-04-11T01:35:58.563Z,38
2023-04-11T01:37:05.248Z,41
2023-04-11T01:38:12.087Z,40
2023-04-11T01:39:19.060Z,40
2023-04-11T01:40:26.010Z,39
2023-04-11T01:41:32.798Z,37
2023-04-11T01:42:39.650Z,36
2023-04-11T01:43:46.438Z,35
2023-04-11T01:44:53.230Z,35
2023-04-11T01:46:00.148Z,36
2023-04-11T01:47:06.926Z,36
2023-04-11T01:48:13.758Z,33
2023-04-11T01:49:20.582Z,32
2023-04-11T01:50:27.393Z,35
2023-04-11T01:51:34.139Z,33
2023-04-11T01:52:40.929Z,33
2023-04-11T01:53:47.746Z,34
2023-04-11T01:54:54.512Z,34
2023-04-11T01:56:01.290Z,34
2023-04-11T01:57:08.419Z,33
2023-04-11T01:58:15.243Z,36
2023-04-11T01:59:21.985Z,38
2023-04-11T02:00:28.861Z,37
2023-04-11T02:01:35.760Z,37
2023-04-11T02:02:42.597Z,37
2023-04-11T02:03:49.286Z,36
2023-04-11T02:04:56.071Z,37
2023-04-11T02:06:02.922Z,37
2023-04-11T02:07:09.714Z,38
2023-04-11T02:08:16.551Z,38
2023-04-11T02:09:23.439Z,36
2023-04-11T02:10:30.212Z,39
2023-04-11T02:11:36.999Z,38
2023-04-11T02:12:43.810Z,39
2023-04-11T02:13:50.643Z,39
2023-04-11T02:14:57.384Z,41
2023-04-11T02:16:04.166Z,40
2023-04-11T02:17:11.211Z,40
2023-04-11T02:18:18.043Z,41
2023-04-11T02:19:24.848Z,38
2023-04-11T02:20:31.677Z,38
2023-04-11T02:21:38.544Z,35
2023-04-11T02:22:45.358Z,36
2023-04-11T02:23:52.242Z,36
2023-04-11T02:24:59.260Z,35
2023-04-11T02:26:06.185Z,34
2023-04-11T02:27:12.959Z,35
2023-04-11T02:28:19.793Z,34
2023-04-11T02:29:26.692Z,34
2023-04-11T02:30:33.578Z,35
2023-04-11T02:31:40.539Z,37
2023-04-11T02:32:47.212Z,35
2023-04-11T02:33:53.980Z,35
2023-04-11T02:35:00.735Z,37
2023-04-11T02:36:07.781Z,36
2023-04-11T02:37:14.585Z,36
2023-04-11T02:38:21.499Z,36
2023-04-11T02:39:28.249Z,36
2023-04-11T02:40:35.182Z,36
2023-04-11T02:41:42.146Z,37
2023-04-11T02:42:48.946Z,36
2023-04-11T02:43:55.755Z,37
2023-04-11T02:45:02.510Z,38
2023-04-11T02:46:12.439Z,37
2023-04-11T02:47:16.550Z,36
2023-04-11T02:48:23.301Z,38
2023-04-11T02:49:30.148Z,38
2023-04-11T02:50:36.981Z,37
2023-04-11T02:51:43.906Z,39
2023-04-11T02:52:50.852Z,38
2023-04-11T02:53:57.651Z,39
2023-04-11T02:55:04.504Z,41
2023-04-11T02:56:11.533Z,42
2023-04-11T02:57:18.348Z,43
2023-04-11T02:58:25.321Z,42
2023-04-11T02:59:32.092Z,40
2023-04-11T03:00:38.852Z,43
2023-04-11T03:01:45.707Z,43
2023-04-11T03:02:52.467Z,43
2023-04-11T03:03:59.428Z,41
2023-04-11T03:05:06.249Z,44
2023-04-11T03:06:13.159Z,41
2023-04-11T03:07:19.994Z,41
2023-04-11T03:08:26.969Z,44
2023-04-11T03:09:33.851Z,43
2023-04-11T03:10:40.742Z,42
2023-04-11T03:11:47.565Z,42
2023-04-11T03:12:54.399Z,44
2023-04-11T03:14:01.250Z,43
2023-04-11T03:15:08.212Z,40
2023-04-11T03:16:15.152Z,38
2023-04-11T03:17:21.927Z,39
2023-04-11T03:18:28.703Z,35
2023-04-11T03:19:35.492Z,35
2023-04-11T03:20:42.505Z,36
2023-04-11T03:21:49.502Z,36
2023-04-11T03:22:56.333Z,36
2023-04-11T03:24:03.188Z,35
2023-04-11T03:25:10.141Z,35
2023-04-11T03:26:16.965Z,35
2023-04-11T03:27:23.913Z,35
2023-04-11T03:28:30.690Z,35
2023-04-11T03:29:37.442Z,33
2023-04-11T03:30:44.253Z,34
2023-04-11T03:31:51.258Z,32
2023-04-11T03:32:58.106Z,34
2023-04-11T03:34:04.921Z,36
2023-04-11T03:35:11.791Z,34
2023-04-11T03:36:18.587Z,34
2023-04-11T03:37:28.419Z,32
2023-04-11T03:38:35.264Z,33
2023-04-11T03:39:42.324Z,34
2023-04-11T03:40:49.093Z,33
2023-04-11T03:41:55.917Z,33
2023-04-11T03:43:04.535Z,32
2023-04-11T03:44:09.508Z,30
2023-04-11T03:45:16.368Z,30
2023-04-11T03:46:23.301Z,29
2023-04-11T03:47:30.216Z,29
2023-04-11T03:48:37.064Z,30
2023-04-11T03:49:43.828Z,29
2023-04-11T03:50:50.758Z,30
2023-04-11T03:51:57.572Z,30
2023-04-11T03:53:04.396Z,31
2023-04-11T03:54:11.178Z,31
2023-04-11T03:55:18.022Z,31
2023-04-11T03:56:25.057Z,31
2023-04-11T03:57:31.828Z,31
2023-04-11T03:58:38.795Z,30
2023-04-11T03:59:45.642Z,31
2023-04-11T04:00:52.454Z,31
2023-04-11T04:01:59.420Z,29
2023-04-11T04:03:06.266Z,31
2023-04-11T04:04:12.941Z,32
2023-04-11T04:05:19.710Z,33
2023-04-11T04:06:26.528Z,33
2023-04-11T04:07:33.444Z,35
2023-04-11T04:08:40.324Z,35
2023-04-11T04:09:47.113Z,35
2023-04-11T04:10:53.984Z,38
2023-04-11T04:12:00.769Z,42
2023-04-11T04:13:07.826Z,42
2023-04-11T04:14:14.865Z,42
2023-04-11T04:15:21.680Z,42
2023-04-11T04:16:28.578Z,41
2023-04-11T04:17:35.455Z,43
2023-04-11T04:18:42.217Z,41
2023-04-11T04:19:49.053Z,40
2023-04-11T04:20:55.811Z,38
2023-04-11T04:22:02.588Z,38
2023-04-11T04:23:09.370Z,35
2023-04-11T04:24:16.136Z,35
2023-04-11T04:25:24.561Z,35
2023-04-11T04:26:29.839Z,34
2023-04-11T04:27:36.609Z,33
2023-04-11T04:28:43.415Z,34
2023-04-11T04:29:51.931Z,31
2023-04-11T04:30:57.044Z,32
2023-04-11T04:32:09.057Z,32
2023-04-11T04:33:15.927Z,30
2023-04-11T04:34:25.915Z,30
2023-04-11T04:35:32.756Z,29
2023-04-11T04:36:39.511Z,28
2023-04-11T04:37:51.443Z,28
2023-04-11T04:38:58.244Z,28
2023-04-11T04:40:05.024Z,29
2023-04-11T04:41:11.973Z,27
2023-04-11T04:42:18.835Z,27
2023-04-11T04:43:28.634Z,27
2023-04-11T04:44:35.438Z,25
2023-04-11T04:45:42.267Z,27
2023-04-11T04:46:49.055Z,25
2023-04-11T04:47:58.527Z,25
2023-04-11T04:49:05.333Z,26
2023-04-11T04:50:12.209Z,25
2023-04-11T04:51:18.999Z,24
2023-04-11T04:52:25.774Z,23
2023-04-11T04:53:32.549Z,25
2023-04-11T04:54:39.301Z,25
2023-04-11T04:55:46.154Z,24
2023-04-11T04:56:52.944Z,24
2023-04-11T04:57:59.756Z,24
2023-04-11T04:59:06.557Z,25
2023-04-11T05:00:13.313Z,25
2023-04-11T05:01:20.366Z,25
2023-04-11T05:02:27.193Z,26
2023-04-11T05:03:33.972Z,27
2023-04-11T05:04:40.701Z,26
2023-04-11T05:05:50.368Z,28
2023-04-11T05:06:57.201Z,27
2023-04-11T05:08:04.099Z,28
2023-04-11T05:09:10.909Z,28
2023-04-11T05:10:17.735Z,28
2023-04-11T05:11:24.579Z,27
2023-04-11T05:12:31.371Z,27
2023-04-11T05:13:38.418Z,26
2023-04-11T05:14:45.147Z,26
2023-04-11T05:15:51.942Z,26
2023-04-11T05:16:58.733Z,25
2023-04-11T05:18:05.551Z,23
2023-04-11T05:19:12.460Z,24
2023-04-11T05:20:19.340Z,23
2023-04-11T05:21:26.142Z,24
2023-04-11T05:22:32.899Z,22
2023-04-11T05:23:39.740Z,22
2023-04-11T05:24:46.611Z,23
2023-04-11T05:25:53.368Z,24
2023-04-11T05:27:00.135Z,25
2023-04-11T05:28:07.036Z,23
2023-04-11T05:29:13.812Z,24
2023-04-11T05:30:20.695Z,23
2023-04-11T05:31:27.578Z,24
2023-04-11T05:32:34.398Z,25
2023-04-11T05:33:41.201Z,24
2023-04-11T05:34:48.023Z,21
2023-04-11T05:35:54.884Z,23
2023-04-11T05:37:01.691Z,22
2023-04-11T05:38:08.497Z,23
2023-04-11T05:39:15.299Z,22
2023-04-11T05:40:22.093Z,24
2023-04-11T05:41:29.130Z,23
2023-04-11T05:42:35.938Z,23
2023-04-11T05:43:42.844Z,22
2023-04-11T05:44:49.697Z,21
2023-04-11T05:45:56.482Z,21
2023-04-11T05:47:03.460Z,21
2023-04-11T05:48:10.480Z,20
2023-04-11T05:49:17.222Z,20
2023-04-11T05:50:24.029Z,20
2023-04-11T05:51:30.972Z,21
2023-04-11T05:52:37.821Z,22
2023-04-11T05:53:44.718Z,26
2023-04-11T05:54:51.485Z,23
2023-04-11T05:55:58.260Z,23
2023-04-11T05:57:05.172Z,22
2023-04-11T05:58:12.102Z,22
2023-04-11T05:59:23.997Z,21
2023-04-11T06:00:25.903Z,19
2023-04-11T06:01:32.747Z,20
2023-04-11T06:02:39.665Z,20
2023-04-11T06:04:53.243Z,19
2023-04-11T06:06:00.056Z,21
2023-04-11T06:07:06.991Z,21
2023-04-11T06:08:13.743Z,22
2023-04-11T06:09:20.658Z,21
2023-04-11T06:10:27.697Z,21
2023-04-11T06:11:34.471Z,22
2023-04-11T06:12:41.410Z,18
2023-04-11T06:13:48.223Z,20
2023-04-11T06:14:55.235Z,20
2023-04-11T06:16:02.211Z,19
2023-04-11T06:17:09.227Z,19
2023-04-11T06:18:16.072Z,19
2023-04-11T06:19:22.867Z,19
2023-04-11T06:20:29.922Z,18
2023-04-11T06:21:36.738Z,19
2023-04-11T06:22:43.498Z,18
2023-04-11T06:23:50.755Z,20
2023-04-11T06:24:57.790Z,20
2023-04-11T06:26:04.593Z,19
2023-04-11T06:27:11.558Z,20
2023-04-11T06:28:18.443Z,21
2023-04-11T06:29:25.263Z,17
2023-04-11T06:30:32.195Z,18
2023-04-11T06:31:39.096Z,17
2023-04-11T06:32:45.910Z,15
2023-04-11T06:33:52.780Z,17
2023-04-11T06:34:59.717Z,17
2023-04-11T06:36:06.685Z,18
2023-04-11T06:37:13.645Z,16
2023-04-11T06:38:20.542Z,16
2023-04-11T06:39:27.321Z,17
2023-04-11T06:40:34.113Z,15
2023-04-11T06:41:40.921Z,16
2023-04-11T06:42:47.748Z,18
2023-04-11T06:43:54.858Z,17
2023-04-11T06:45:01.591Z,16
2023-04-11T06:46:08.777Z,17
2023-04-11T06:47:15.672Z,17
2023-04-11T06:48:22.470Z,17
2023-04-11T06:49:29.278Z,16
2023-04-11T06:50:36.098Z,18
2023-04-11T06:51:42.858Z,17
2023-04-11T06:52:49.681Z,17
2023-04-11T06:53:56.728Z,18
2023-04-11T06:55:03.337Z,18
2023-04-11T06:56:10.593Z,18
2023-04-11T06:57:20.714Z,15
2023-04-11T06:58:27.538Z,16
2023-04-11T06:59:34.430Z,17
2023-04-11T07:00:41.250Z,16
2023-04-11T07:01:48.142Z,15
2023-04-11T07:02:55.101Z,16
2023-04-11T07:04:01.841Z,15
2023-04-11T07:05:08.634Z,16
2023-04-11T07:06:15.431Z,16
2023-04-11T07:07:25.476Z,17
2023-04-11T07:08:32.310Z,17
2023-04-11T07:09:39.171Z,15
2023-04-11T07:10:46.036Z,17
2023-04-11T07:11:52.804Z,16
2023-04-11T07:12:59.644Z,17
2023-04-11T07:14:06.486Z,17
2023-04-11T07:15:13.385Z,14
2023-04-11T07:16:20.278Z,15
2023-04-11T07:17:27.109Z,14
2023-04-11T07:18:33.862Z,14
2023-04-11T07:19:40.634Z,13
2023-04-11T07:20:47.631Z,15
2023-04-11T07:21:54.528Z,14
2023-04-11T07:23:01.364Z,14
2023-04-11T07:24:08.149Z,13
2023-04-11T07:25:14.961Z,13
2023-04-11T07:26:21.877Z,12
2023-04-11T07:27:28.689Z,13
2023-04-11T07:28:35.468Z,14
2023-04-11T07:29:42.254Z,13
2023-04-11T07:30:49.124Z,13
2023-04-11T07:31:56.051Z,13
2023-04-11T07:33:02.863Z,13
2023-04-11T07:34:09.717Z,13
2023-04-11T07:35:16.481Z,13
2023-04-11T07:36:23.293Z,13
2023-04-11T07:37:30.177Z,13
2023-04-11T07:38:36.988Z,14
2023-04-11T07:39:43.777Z,14
2023-04-11T07:40:50.584Z,13
2023-04-11T07:41:57.348Z,14
2023-04-11T07:43:04.130Z,13
2023-04-11T07:44:10.949Z,13
2023-04-11T07:45:17.755Z,14
2023-04-11T07:46:24.548Z,13
2023-04-11T07:47:31.333Z,13
2023-04-11T07:48:38.193Z,12
2023-04-11T07:49:45.044Z,12
2023-04-11T07:50:51.871Z,12
2023-04-11T07:51:58.698Z,12
2023-04-11T07:53:05.555Z,12
2023-04-11T07:54:12.411Z,12
2023-04-11T07:55:19.322Z,12
2023-04-11T07:56:26.106Z,12
2023-04-11T07:57:32.914Z,12
2023-04-11T07:58:39.766Z,13
2023-04-11T07:59:46.541Z,14
2023-04-11T08:00:53.539Z,14
2023-04-11T08:02:00.453Z,14
2023-04-11T08:03:07.433Z,13
2023-04-11T08:04:14.296Z,14
2023-04-11T08:05:20.912Z,12
2023-04-11T08:06:27.686Z,14
2023-04-11T08:07:34.493Z,13
2023-04-11T08:08:41.279Z,13
2023-04-11T08:09:48.156Z,12
2023-04-11T08:10:54.947Z,14
2023-04-11T08:12:01.782Z,12
2023-04-11T08:13:08.714Z,12
2023-04-11T08:14:15.523Z,12
2023-04-11T08:15:22.400Z,12
2023-04-11T08:16:29.233Z,12
2023-04-11T08:17:36.319Z,11
2023-04-11T08:18:43.042Z,13
2023-04-11T08:19:49.921Z,13
2023-04-11T08:20:56.906Z,13
2023-04-11T08:22:03.575Z,12
2023-04-11T08:23:10.474Z,11
2023-04-11T08:24:17.303Z,12
2023-04-11T08:25:24.154Z,12
2023-04-11T08:26:31.078Z,12
2023-04-11T08:27:37.881Z,12
2023-04-11T08:28:44.943Z,11
2023-04-11T08:29:52.001Z,12
2023-04-11T08:30:58.772Z,12
2023-04-11T08:32:05.557Z,12
2023-04-11T08:33:12.357Z,12
2023-04-11T08:34:19.268Z,11
2023-04-11T08:35:26.211Z,11
2023-04-11T08:36:33.287Z,12
2023-04-11T08:37:39.968Z,12
2023-04-11T08:38:46.862Z,12
2023-04-11T08:39:53.670Z,12
2023-04-11T08:41:00.557Z,12
2023-04-11T08:42:07.434Z,11
2023-04-11T08:43:24.602Z,10
2023-04-11T08:44:33.990Z,10
2023-04-11T08:45:40.889Z,10
2023-04-11T08:46:47.821Z,9
2023-04-11T08:47:54.673Z,11
2023-04-11T08:49:01.520Z,10
2023-04-11T08:50:08.359Z,9
2023-04-11T08:51:15.199Z,10
2023-04-11T08:52:24.858Z,10
2023-04-11T08:53:31.794Z,10
2023-04-11T08:54:38.686Z,10
2023-04-11T08:55:45.603Z,10
2023-04-11T08:56:52.519Z,11
2023-04-11T08:57:59.550Z,10
2023-04-11T08:59:06.589Z,10
2023-04-11T09:00:13.657Z,11
2023-04-11T09:01:21.017Z,10
2023-04-11T09:02:28.248Z,10
2023-04-11T09:03:35.127Z,10
2023-04-11T09:04:52.341Z,10
2023-04-11T09:05:59.217Z,10
2023-04-11T09:07:06.164Z,10
2023-04-11T09:08:13.202Z,10
2023-04-11T09:09:20.029Z,9
2023-04-11T09:10:32.115Z,11
2023-04-11T09:11:39.218Z,11
2023-04-11T09:12:53.889Z,11
2023-04-11T09:14:00.774Z,10
2023-04-11T09:15:07.794Z,10
2023-04-11T09:16:19.924Z,10
2023-04-11T09:17:27.003Z,10
2023-04-11T09:18:34.001Z,10
2023-04-11T09:19:40.964Z,10
2023-04-11T09:20:48.014Z,10
2023-04-11T09:21:54.949Z,11
2023-04-11T09:23:01.803Z,11
2023-04-11T09:24:09.124Z,11
2023-04-11T09:25:19.023Z,11
2023-04-11T09:26:26.163Z,12
2023-04-11T09:27:33.214Z,11
2023-04-11T09:28:40.055Z,10
2023-04-11T09:29:46.924Z,11
2023-04-11T09:30:53.935Z,10
2023-04-11T09:32:00.732Z,9
2023-04-11T09:33:07.637Z,10
2023-04-11T09:34:22.310Z,9
2023-04-11T09:35:29.129Z,10
2023-04-11T09:36:36.014Z,10
2023-04-11T09:37:42.905Z,10
2023-04-11T09:38:57.734Z,11
2023-04-11T09:40:05.696Z,11
2023-04-11T09:41:11.704Z,12
2023-04-11T09:42:18.541Z,12
2023-04-11T09:43:27.959Z,11
2023-04-11T09:44:45.193Z,12
2023-04-11T09:45:54.310Z,13
2023-04-11T09:47:04.056Z,13
2023-04-11T09:48:10.949Z,12
2023-04-11T09:49:17.752Z,12
2023-04-11T09:50:24.616Z,10
2023-04-11T09:51:35.590Z,10
2023-04-11T09:52:38.498Z,8
2023-04-11T09:53:45.344Z,8
2023-04-11T09:54:52.148Z,8
2023-04-11T09:55:59.046Z,8
2023-04-11T09:57:06.028Z,8
2023-04-11T09:58:12.965Z,8
2023-04-11T09:59:19.685Z,8
2023-04-11T10:00:26.557Z,8
2023-04-11T10:01:33.450Z,8
2023-04-11T10:02:40.475Z,8
2023-04-11T10:03:47.209Z,9
2023-04-11T10:04:53.990Z,9
2023-04-11T10:06:00.835Z,8
2023-04-11T10:07:07.611Z,9
2023-04-11T10:08:17.500Z,9
2023-04-11T10:09:29.497Z,8
2023-04-11T10:10:36.241Z,8
2023-04-11T10:11:43.308Z,9
2023-04-11T10:12:49.990Z,9
2023-04-11T10:13:57.024Z,9
2023-04-11T10:15:03.683Z,8
2023-04-11T10:16:10.723Z,8
2023-04-11T10:17:21.805Z,8
2023-04-11T10:18:27.018Z,7
2023-04-11T10:19:33.884Z,7
2023-04-11T10:20:40.932Z,7
2023-04-11T10:21:47.772Z,8
2023-04-11T10:22:54.578Z,8
2023-04-11T10:24:01.621Z,8
2023-04-11T10:25:16.493Z,7
2023-04-11T10:26:23.501Z,8
2023-04-11T10:27:38.498Z,7
2023-04-11T10:28:51.450Z,7
2023-04-11T10:29:58.378Z,7
2023-04-11T10:31:05.362Z,6
2023-04-11T10:32:12.164Z,7
2023-04-11T10:33:21.844Z,6
2023-04-11T10:34:28.798Z,8
2023-04-11T10:35:35.625Z,7
2023-04-11T10:36:52.812Z,7
2023-04-11T10:38:04.854Z,7
2023-04-11T10:39:11.628Z,7
2023-04-11T10:40:18.423Z,7
2023-04-11T10:41:25.458Z,7
2023-04-11T10:42:32.286Z,7
2023-04-11T10:43:39.295Z,7
2023-04-11T10:44:45.923Z,7
2023-04-11T10:45:52.784Z,7
2023-04-11T10:47:10.125Z,7
2023-04-11T10:48:16.879Z,7
2023-04-11T10:49:23.781Z,7
2023-04-11T10:50:41.139Z,7
2023-04-11T10:51:47.908Z,6
2023-04-11T10:52:54.810Z,6
2023-04-11T10:54:02.229Z,6
2023-04-11T10:55:08.408Z,7
2023-04-11T10:56:17.915Z,6
2023-04-11T10:57:29.924Z,6
2023-04-11T10:58:36.678Z,7
2023-04-11T10:59:43.662Z,6
2023-04-11T11:00:53.488Z,6
2023-04-11T11:02:03.664Z,7
2023-04-11T11:03:10.612Z,6
2023-04-11T11:04:17.615Z,6
2023-04-11T11:05:24.194Z,7
2023-04-11T11:06:31.022Z,6
2023-04-11T11:07:37.822Z,6
2023-04-11T11:08:44.650Z,6
2023-04-11T11:09:51.606Z,7
2023-04-11T11:10:58.247Z,7
2023-04-11T11:12:05.036Z,8
2023-04-11T11:13:14.588Z,7
2023-04-11T11:14:21.469Z,9
2023-04-11T11:15:31.190Z,8
2023-04-11T11:16:38.047Z,9
2023-04-11T11:17:44.969Z,9
2023-04-11T11:18:51.763Z,9
2023-04-11T11:19:58.660Z,9
2023-04-11T11:21:07.339Z,10
2023-04-11T11:22:12.370Z,11
2023-04-11T11:23:22.111Z,11
2023-04-11T11:24:28.891Z,12
2023-04-11T11:25:35.799Z,12
2023-04-11T11:26:42.678Z,13
2023-04-11T11:27:49.483Z,11
2023-04-11T11:29:06.706Z,11
2023-04-11T11:30:13.568Z,9
2023-04-11T11:31:20.546Z,9
2023-04-11T11:32:27.342Z,10
2023-04-11T11:33:34.359Z,11
2023-04-11T11:34:41.338Z,10
2023-04-11T11:35:48.200Z,10
2023-04-11T11:37:00.380Z,10
2023-04-11T11:38:10.002Z,9
2023-04-11T11:39:16.850Z,10
2023-04-11T11:40:23.717Z,9
2023-04-11T11:41:30.545Z,10
2023-04-11T11:42:40.286Z,11
2023-04-11T11:43:47.201Z,11
2023-04-11T11:44:54.031Z,10
2023-04-11T11:46:00.845Z,10
2023-04-11T11:47:13.641Z,9
2023-04-11T11:48:20.411Z,8
2023-04-11T11:49:27.355Z,8
2023-04-11T11:50:44.605Z,8
2023-04-11T11:51:51.620Z,8
2023-04-11T11:52:58.376Z,8
2023-04-11T11:54:15.508Z,7
2023-04-11T11:55:22.453Z,7
2023-04-11T11:56:29.321Z,8
2023-04-11T11:57:36.151Z,8
2023-04-11T11:58:48.300Z,7
2023-04-11T11:59:55.081Z,7
2023-04-11T12:01:01.867Z,7
2023-04-11T12:02:10.319Z,7
2023-04-11T12:03:17.564Z,7
2023-04-11T12:04:24.251Z,8
2023-04-11T12:05:31.065Z,7
2023-04-11T12:06:37.761Z,8
2023-04-11T12:07:44.547Z,8
2023-04-11T12:08:51.371Z,7
2023-04-11T12:09:58.341Z,7
2023-04-11T12:11:05.167Z,6
2023-04-11T12:12:11.966Z,6
2023-04-11T12:13:18.742Z,6
2023-04-11T12:14:25.549Z,6
2023-04-11T12:15:32.605Z,7
2023-04-11T12:16:39.352Z,7
2023-04-11T12:17:46.129Z,7
2023-04-11T12:18:55.714Z,7
2023-04-11T12:20:02.566Z,7
2023-04-11T12:21:09.561Z,7
2023-04-11T12:22:16.418Z,7
2023-04-11T12:23:23.258Z,6
2023-04-11T12:24:30.083Z,6
2023-04-11T12:25:36.940Z,6
2023-04-11T12:26:52.943Z,7
2023-04-11T12:27:50.553Z,6
2023-04-11T12:28:57.816Z,6
2023-04-11T12:30:04.367Z,7
2023-04-11T12:31:11.264Z,6
2023-04-11T12:32:18.245Z,7
2023-04-11T12:33:25.106Z,6
2023-04-11T12:34:32.091Z,7
2023-04-11T12:35:38.821Z,7
2023-04-11T12:36:45.694Z,7
2023-04-11T12:37:52.527Z,7
2023-04-11T12:38:59.540Z,8
2023-04-11T12:40:06.431Z,8
2023-04-11T12:41:31.412Z,9
2023-04-11T12:42:24.204Z,8
2023-04-11T12:43:29.965Z,9
2023-04-11T12:44:36.861Z,8
2023-04-11T12:45:43.886Z,9
2023-04-11T12:46:50.775Z,9
2023-04-11T12:47:57.615Z,8
2023-04-11T12:49:04.392Z,8
2023-04-11T12:50:11.328Z,8
2023-04-11T12:51:18.004Z,9
2023-04-11T12:52:24.884Z,8
2023-04-11T12:53:31.718Z,8
2023-04-11T12:54:38.510Z,8
2023-04-11T12:55:45.413Z,8
2023-04-11T12:57:49.198Z,8
2023-04-11T12:58:56.314Z,8
2023-04-11T13:00:03.041Z,8
2023-04-11T13:01:10.221Z,8
2023-04-11T13:02:17.915Z,9
2023-04-11T13:03:24.911Z,8
2023-04-11T13:04:34.103Z,8
2023-04-11T13:05:41.005Z,8
2023-04-11T13:06:47.890Z,8
2023-04-11T13:07:54.813Z,9
2023-04-11T13:09:01.750Z,9
2023-04-11T13:10:08.778Z,8
2023-04-11T13:11:15.728Z,9
2023-04-11T13:12:22.595Z,9
2023-04-11T13:13:29.462Z,9
2023-04-11T13:14:36.309Z,8
2023-04-11T13:15:43.160Z,9
2023-04-11T13:16:50.398Z,9
2023-04-11T13:17:57.271Z,9
2023-04-11T13:19:04.296Z,9
2023-04-11T13:20:11.243Z,9
2023-04-11T13:21:18.324Z,9
2023-04-11T13:22:25.109Z,9
2023-04-11T13:23:32.017Z,9
2023-04-11T13:24:38.925Z,10
2023-04-11T13:25:45.816Z,10
2023-04-11T13:26:52.754Z,10
2023-04-11T13:27:59.783Z,9
2023-04-11T13:29:06.705Z,10
2023-04-11T13:30:13.626Z,10
2023-04-11T13:31:20.550Z,9
2023-04-11T13:32:27.688Z,10
2023-04-11T13:33:34.533Z,10
2023-04-11T13:34:41.632Z,10
2023-04-11T13:35:48.530Z,9
2023-04-11T13:36:55.451Z,10
2023-04-11T13:38:02.253Z,9
2023-04-11T13:39:09.349Z,9
2023-04-11T13:40:16.281Z,9
2023-04-11T13:41:23.222Z,12
2023-04-11T13:42:30.089Z,11
2023-04-11T13:43:36.995Z,10
2023-04-11T13:44:43.868Z,9
2023-04-11T13:45:50.805Z,9
2023-04-11T13:46:57.701Z,8
2023-04-11T13:48:04.665Z,8
2023-04-11T13:49:11.530Z,8
2023-04-11T13:50:18.450Z,8
2023-04-11T13:51:25.314Z,8
2023-04-11T13:52:32.268Z,8
2023-04-11T13:53:39.122Z,8
2023-04-11T13:54:46.034Z,8
2023-04-11T13:55:53.008Z,8
2023-04-11T13:57:00.478Z,7
2023-04-11T13:58:08.182Z,7
2023-04-11T13:59:15.153Z,7
2023-04-11T14:00:22.020Z,7
2023-04-11T14:01:28.984Z,7
2023-04-11T14:02:36.009Z,8
2023-04-11T14:03:43.111Z,8
2023-04-11T14:04:49.733Z,8
2023-04-11T14:05:56.626Z,8
2023-04-11T14:07:05.127Z,8
2023-04-11T14:08:21.388Z,8
2023-04-11T14:09:30.512Z,8
2023-04-11T14:10:37.468Z,7
2023-04-11T14:11:44.395Z,9
2023-04-11T14:12:51.298Z,9
2023-04-11T14:13:58.473Z,10
2023-04-11T14:15:05.161Z,10
2023-04-11T14:16:12.514Z,9
2023-04-11T14:17:22.626Z,8
2023-04-11T14:18:29.560Z,8
2023-04-11T14:19:36.440Z,9
2023-04-11T14:20:43.331Z,8
2023-04-11T14:21:50.212Z,7
2023-04-11T14:22:57.110Z,8
2023-04-11T14:24:03.924Z,8
2023-04-11T14:25:10.936Z,7
2023-04-11T14:26:17.864Z,7
2023-04-11T14:27:24.764Z,7
2023-04-11T14:28:31.734Z,6
2023-04-11T14:29:38.629Z,6
2023-04-11T14:30:45.693Z,6
2023-04-11T14:31:52.474Z,6
2023-04-11T14:32:59.271Z,7
2023-04-11T14:34:06.214Z,7
2023-04-11T14:35:13.230Z,7
2023-04-11T14:36:20.031Z,7
2023-04-11T14:37:26.984Z,8
2023-04-11T14:38:33.840Z,7
2023-04-11T14:39:40.895Z,6
2023-04-11T14:40:48.153Z,7
2023-04-11T14:41:55.175Z,7
2023-04-11T14:43:03.072Z,7
2023-04-11T14:44:09.921Z,19
2023-04-11T14:45:16.936Z,8
2023-04-11T14:46:25.770Z,8
2023-04-11T14:47:33.690Z,9
2023-04-11T14:48:40.527Z,10
2023-04-11T14:49:47.383Z,9
2023-04-11T14:50:56.282Z,9
2023-04-11T14:52:03.226Z,9
2023-04-11T14:53:10.183Z,10
2023-04-11T14:54:19.192Z,11
2023-04-11T14:55:26.066Z,12
2023-04-11T14:56:36.232Z,12
2023-04-11T14:57:43.963Z,13
2023-04-11T14:58:50.821Z,13
2023-04-11T14:59:59.371Z,14
2023-04-11T15:01:06.440Z,14
2023-04-11T15:02:13.540Z,16
2023-04-11T15:03:20.449Z,16
2023-04-11T15:04:27.245Z,17
2023-04-11T15:05:36.974Z,17
2023-04-11T15:06:43.863Z,17
2023-04-11T15:07:54.668Z,20
2023-04-11T15:09:01.563Z,20
2023-04-11T15:10:09.627Z,20
2023-04-11T15:11:20.175Z,19
2023-04-11T15:12:29.916Z,21
2023-04-11T15:13:37.054Z,20
2023-04-11T15:14:44.854Z,21
2023-04-11T15:15:51.713Z,21
2023-04-11T15:17:06.765Z,21
2023-04-11T15:18:13.615Z,22
2023-04-11T15:19:20.522Z,23
2023-04-11T15:20:27.310Z,23
2023-04-11T15:21:34.198Z,26
2023-04-11T15:22:42.257Z,27
2023-04-11T15:23:49.180Z,26
2023-04-11T15:24:56.010Z,26
2023-04-11T15:26:02.979Z,25
2023-04-11T15:27:09.778Z,29
2023-04-11T15:28:16.638Z,25
2023-04-11T15:29:23.598Z,23
2023-04-11T15:30:35.361Z,26
2023-04-11T15:31:42.432Z,29
2023-04-11T15:32:49.288Z,16
2023-04-11T15:33:56.438Z,18
2023-04-11T15:35:03.136Z,21
2023-04-11T15:36:10.112Z,21
2023-04-11T15:37:17.000Z,19
2023-04-11T15:38:23.827Z,19
2023-04-11T15:39:30.710Z,19
2023-04-11T15:40:37.542Z,19
2023-04-11T15:41:45.344Z,21
2023-04-11T15:42:52.285Z,25
2023-04-11T15:44:00.873Z,26
2023-04-11T15:45:07.684Z,27
2023-04-11T15:46:18.318Z,30
2023-04-11T15:47:25.412Z,27
2023-04-11T15:48:34.227Z,22
2023-04-11T15:49:41.049Z,20
2023-04-11T15:50:47.871Z,19
2023-04-11T15:51:54.802Z,18
2023-04-11T15:53:01.734Z,16
2023-04-11T15:54:08.629Z,19
2023-04-11T15:55:15.543Z,26
2023-04-11T15:56:23.353Z,32
2023-04-11T15:57:30.274Z,30
2023-04-11T15:58:37.068Z,37
2023-04-11T15:59:43.959Z,26
2023-04-11T16:00:50.886Z,20
2023-04-11T16:01:57.874Z,18
2023-04-11T16:03:07.990Z,16
2023-04-11T16:04:14.835Z,11
2023-04-11T16:05:21.772Z,9
2023-04-11T16:06:28.573Z,9
2023-04-11T16:07:35.423Z,10
2023-04-11T16:08:44.244Z,10
2023-04-11T16:09:53.597Z,9
2023-04-11T16:11:00.570Z,8
2023-04-11T16:12:07.700Z,8